sensor_id;sensor_type;location;lat;lon;timestamp;P1;durP1;ratioP1;P2;durP2;ratioP2
51814;SDS011;37874;53.158;6.766;2023-02-15T00:01:18;6.80;;;5.00;;
51814;SDS011;37874;53.158;6.766;2023-02-15T00:03:43;9.15;;;5.90;;
51814;SDS011;37874;53.158;6.766;2023-02-15T00:06:12;7.97;;;5.78;;
51814;SDS011;37874;53.158;6.766;2023-02-15T00:08:37;10.27;;;5.32;;
51814;SDS011;37874;53.158;6.766;2023-02-15T00:11:06;6.22;;;4.60;;
51814;SDS011;37874;53.158;6.766;2023-02-15T00:13:33;7.15;;;5.15;;
51814;SDS011;37874;53.158;6.766;2023-02-15T00:16:03;6.35;;;4.80;;
51814;SDS011;37874;53.158;6.766;2023-02-15T00:18:30;7.03;;;5.20;;
51814;SDS011;37874;53.158;6.766;2023-02-15T00:20:56;7.03;;;5.15;;
51814;SDS011;37874;53.158;6.766;2023-02-15T00:23:22;5.80;;;4.22;;
51814;SDS011;37874;53.158;6.766;2023-02-15T00:25:48;6.13;;;4.63;;
51814;SDS011;37874;53.158;6.766;2023-02-15T00:28:13;5.75;;;4.38;;
51814;SDS011;37874;53.158;6.766;2023-02-15T00:30:39;6.60;;;4.78;;
51814;SDS011;37874;53.158;6.766;2023-02-15T00:33:05;6.78;;;4.35;;
51814;SDS011;37874;53.158;6.766;2023-02-15T00:35:30;5.35;;;4.32;;
51814;SDS011;37874;53.158;6.766;2023-02-15T00:37:56;6.15;;;4.55;;
51814;SDS011;37874;53.158;6.766;2023-02-15T00:40:21;6.22;;;4.60;;
51814;SDS011;37874;53.158;6.766;2023-02-15T00:42:47;6.97;;;4.63;;
51814;SDS011;37874;53.158;6.766;2023-02-15T00:45:13;5.13;;;4.25;;
51814;SDS011;37874;53.158;6.766;2023-02-15T00:47:39;7.18;;;4.55;;
51814;SDS011;37874;53.158;6.766;2023-02-15T00:50:04;7.63;;;4.88;;
51814;SDS011;37874;53.158;6.766;2023-02-15T00:52:31;5.45;;;4.20;;
51814;SDS011;37874;53.158;6.766;2023-02-15T00:54:57;5.10;;;4.03;;
51814;SDS011;37874;53.158;6.766;2023-02-15T00:57:23;5.13;;;4.05;;
51814;SDS011;37874;53.158;6.766;2023-02-15T00:59:48;4.63;;;3.70;;
51814;SDS011;37874;53.158;6.766;2023-02-15T01:02:14;5.00;;;4.15;;
51814;SDS011;37874;53.158;6.766;2023-02-15T01:04:40;5.32;;;4.15;;
51814;SDS011;37874;53.158;6.766;2023-02-15T01:07:06;7.20;;;4.15;;
51814;SDS011;37874;53.158;6.766;2023-02-15T01:09:31;5.72;;;4.10;;
51814;SDS011;37874;53.158;6.766;2023-02-15T01:11:57;4.75;;;3.95;;
51814;SDS011;37874;53.158;6.766;2023-02-15T01:14:22;5.07;;;4.00;;
51814;SDS011;37874;53.158;6.766;2023-02-15T01:16:48;4.53;;;3.65;;
51814;SDS011;37874;53.158;6.766;2023-02-15T01:19:13;4.70;;;3.80;;
51814;SDS011;37874;53.158;6.766;2023-02-15T01:21:39;5.25;;;3.80;;
51814;SDS011;37874;53.158;6.766;2023-02-15T01:24:10;5.68;;;4.10;;
51814;SDS011;37874;53.158;6.766;2023-02-15T01:26:37;4.97;;;3.78;;
51814;SDS011;37874;53.158;6.766;2023-02-15T01:29:03;4.43;;;3.67;;
51814;SDS011;37874;53.158;6.766;2023-02-15T01:31:29;4.57;;;3.70;;
51814;SDS011;37874;53.158;6.766;2023-02-15T01:33:54;4.95;;;3.88;;
51814;SDS011;37874;53.158;6.766;2023-02-15T01:36:20;5.00;;;3.88;;
51814;SDS011;37874;53.158;6.766;2023-02-15T01:38:45;4.75;;;3.67;;
51814;SDS011;37874;53.158;6.766;2023-02-15T01:41:11;4.53;;;3.47;;
51814;SDS011;37874;53.158;6.766;2023-02-15T01:43:58;4.30;;;3.42;;
51814;SDS011;37874;53.158;6.766;2023-02-15T01:46:41;7.10;;;4.03;;
51814;SDS011;37874;53.158;6.766;2023-02-15T01:49:15;4.50;;;3.50;;
51814;SDS011;37874;53.158;6.766;2023-02-15T01:51:43;4.47;;;3.70;;
51814;SDS011;37874;53.158;6.766;2023-02-15T01:54:23;4.13;;;3.38;;
51814;SDS011;37874;53.158;6.766;2023-02-15T01:56:58;4.20;;;3.58;;
51814;SDS011;37874;53.158;6.766;2023-02-15T01:59:28;4.90;;;3.90;;
51814;SDS011;37874;53.158;6.766;2023-02-15T02:01:56;5.10;;;3.63;;
51814;SDS011;37874;53.158;6.766;2023-02-15T02:06:53;4.10;;;3.40;;
51814;SDS011;37874;53.158;6.766;2023-02-15T02:09:19;4.40;;;3.65;;
51814;SDS011;37874;53.158;6.766;2023-02-15T02:11:46;5.05;;;3.92;;
51814;SDS011;37874;53.158;6.766;2023-02-15T02:14:12;4.10;;;3.42;;
51814;SDS011;37874;53.158;6.766;2023-02-15T02:16:45;4.70;;;3.88;;
51814;SDS011;37874;53.158;6.766;2023-02-15T02:22:26;4.85;;;3.75;;
51814;SDS011;37874;53.158;6.766;2023-02-15T02:33:36;4.47;;;3.35;;
51814;SDS011;37874;53.158;6.766;2023-02-15T02:38:48;4.70;;;4.00;;
51814;SDS011;37874;53.158;6.766;2023-02-15T02:41:37;4.82;;;3.92;;
51814;SDS011;37874;53.158;6.766;2023-02-15T02:44:28;5.15;;;3.85;;
51814;SDS011;37874;53.158;6.766;2023-02-15T02:49:41;4.55;;;3.75;;
51814;SDS011;37874;53.158;6.766;2023-02-15T02:55:53;5.10;;;4.13;;
51814;SDS011;37874;53.158;6.766;2023-02-15T02:58:28;5.53;;;4.13;;
51814;SDS011;37874;53.158;6.766;2023-02-15T03:01:06;4.32;;;3.72;;
51814;SDS011;37874;53.158;6.766;2023-02-15T03:03:41;4.90;;;3.80;;
51814;SDS011;37874;53.158;6.766;2023-02-15T03:06:10;4.68;;;3.72;;
51814;SDS011;37874;53.158;6.766;2023-02-15T03:08:47;4.75;;;3.70;;
51814;SDS011;37874;53.158;6.766;2023-02-15T03:11:15;5.18;;;3.60;;
51814;SDS011;37874;53.158;6.766;2023-02-15T03:13:41;4.53;;;3.80;;
51814;SDS011;37874;53.158;6.766;2023-02-15T03:16:09;4.53;;;3.78;;
51814;SDS011;37874;53.158;6.766;2023-02-15T03:19:02;4.43;;;3.67;;
51814;SDS011;37874;53.158;6.766;2023-02-15T03:21:37;4.25;;;3.42;;
51814;SDS011;37874;53.158;6.766;2023-02-15T03:24:14;5.07;;;3.88;;
51814;SDS011;37874;53.158;6.766;2023-02-15T03:26:45;4.90;;;3.65;;
51814;SDS011;37874;53.158;6.766;2023-02-15T03:29:15;5.90;;;4.10;;
51814;SDS011;37874;53.158;6.766;2023-02-15T03:31:42;4.95;;;4.05;;
51814;SDS011;37874;53.158;6.766;2023-02-15T03:34:12;4.18;;;3.65;;
51814;SDS011;37874;53.158;6.766;2023-02-15T03:36:47;5.00;;;3.85;;
51814;SDS011;37874;53.158;6.766;2023-02-15T03:39:34;4.20;;;3.58;;
51814;SDS011;37874;53.158;6.766;2023-02-15T03:42:14;4.25;;;3.58;;
51814;SDS011;37874;53.158;6.766;2023-02-15T03:45:01;4.97;;;3.88;;
51814;SDS011;37874;53.158;6.766;2023-02-15T03:47:34;4.53;;;3.80;;
51814;SDS011;37874;53.158;6.766;2023-02-15T03:52:59;5.00;;;4.10;;
51814;SDS011;37874;53.158;6.766;2023-02-15T03:55:28;4.43;;;3.80;;
51814;SDS011;37874;53.158;6.766;2023-02-15T03:57:54;4.95;;;3.78;;
51814;SDS011;37874;53.158;6.766;2023-02-15T04:00:40;5.40;;;3.80;;
51814;SDS011;37874;53.158;6.766;2023-02-15T04:03:33;4.85;;;3.85;;
51814;SDS011;37874;53.158;6.766;2023-02-15T04:06:05;4.47;;;3.63;;
51814;SDS011;37874;53.158;6.766;2023-02-15T04:08:31;4.55;;;3.70;;
51814;SDS011;37874;53.158;6.766;2023-02-15T04:11:15;4.40;;;3.45;;
51814;SDS011;37874;53.158;6.766;2023-02-15T04:13:41;4.63;;;3.65;;
51814;SDS011;37874;53.158;6.766;2023-02-15T04:16:07;4.35;;;3.63;;
51814;SDS011;37874;53.158;6.766;2023-02-15T04:18:36;5.43;;;3.88;;
51814;SDS011;37874;53.158;6.766;2023-02-15T04:21:23;4.93;;;3.95;;
51814;SDS011;37874;53.158;6.766;2023-02-15T04:24:09;4.25;;;3.30;;
51814;SDS011;37874;53.158;6.766;2023-02-15T04:26:54;4.43;;;3.70;;
51814;SDS011;37874;53.158;6.766;2023-02-15T04:29:21;4.07;;;3.50;;
51814;SDS011;37874;53.158;6.766;2023-02-15T04:31:47;4.28;;;3.45;;
51814;SDS011;37874;53.158;6.766;2023-02-15T04:34:13;4.38;;;3.50;;
51814;SDS011;37874;53.158;6.766;2023-02-15T04:36:39;4.45;;;3.58;;
51814;SDS011;37874;53.158;6.766;2023-02-15T04:39:05;4.45;;;3.67;;
51814;SDS011;37874;53.158;6.766;2023-02-15T04:41:31;4.10;;;3.70;;
51814;SDS011;37874;53.158;6.766;2023-02-15T04:43:57;4.72;;;3.97;;
51814;SDS011;37874;53.158;6.766;2023-02-15T04:46:24;4.70;;;3.80;;
51814;SDS011;37874;53.158;6.766;2023-02-15T04:48:50;4.22;;;3.40;;
51814;SDS011;37874;53.158;6.766;2023-02-15T04:51:15;4.30;;;3.70;;
51814;SDS011;37874;53.158;6.766;2023-02-15T04:53:41;4.00;;;3.40;;
51814;SDS011;37874;53.158;6.766;2023-02-15T04:56:07;4.70;;;4.03;;
51814;SDS011;37874;53.158;6.766;2023-02-15T04:58:32;4.15;;;3.50;;
51814;SDS011;37874;53.158;6.766;2023-02-15T05:00:58;5.28;;;4.03;;
51814;SDS011;37874;53.158;6.766;2023-02-15T05:03:24;4.10;;;3.70;;
51814;SDS011;37874;53.158;6.766;2023-02-15T05:05:50;4.70;;;3.90;;
51814;SDS011;37874;53.158;6.766;2023-02-15T05:08:16;4.20;;;3.70;;
51814;SDS011;37874;53.158;6.766;2023-02-15T05:10:42;4.32;;;3.65;;
51814;SDS011;37874;53.158;6.766;2023-02-15T05:13:07;4.50;;;3.65;;
51814;SDS011;37874;53.158;6.766;2023-02-15T05:15:33;5.22;;;3.90;;
51814;SDS011;37874;53.158;6.766;2023-02-15T05:17:58;4.90;;;3.88;;
51814;SDS011;37874;53.158;6.766;2023-02-15T05:20:24;4.60;;;3.75;;
51814;SDS011;37874;53.158;6.766;2023-02-15T05:22:53;4.30;;;3.58;;
51814;SDS011;37874;53.158;6.766;2023-02-15T05:25:19;5.78;;;4.30;;
51814;SDS011;37874;53.158;6.766;2023-02-15T05:28:03;4.82;;;4.30;;
51814;SDS011;37874;53.158;6.766;2023-02-15T05:30:44;6.03;;;4.05;;
51814;SDS011;37874;53.158;6.766;2023-02-15T05:33:10;5.55;;;4.38;;
51814;SDS011;37874;53.158;6.766;2023-02-15T05:35:36;5.63;;;4.22;;
51814;SDS011;37874;53.158;6.766;2023-02-15T05:38:01;6.03;;;4.00;;
51814;SDS011;37874;53.158;6.766;2023-02-15T05:40:27;5.10;;;4.30;;
51814;SDS011;37874;53.158;6.766;2023-02-15T05:42:52;5.05;;;4.05;;
51814;SDS011;37874;53.158;6.766;2023-02-15T05:45:18;5.90;;;4.40;;
51814;SDS011;37874;53.158;6.766;2023-02-15T05:47:43;5.32;;;4.40;;
51814;SDS011;37874;53.158;6.766;2023-02-15T05:50:09;6.55;;;4.70;;
51814;SDS011;37874;53.158;6.766;2023-02-15T05:52:36;7.65;;;4.88;;
51814;SDS011;37874;53.158;6.766;2023-02-15T05:55:02;10.52;;;7.70;;
51814;SDS011;37874;53.158;6.766;2023-02-15T05:57:29;19.33;;;12.80;;
51814;SDS011;37874;53.158;6.766;2023-02-15T05:59:55;23.25;;;17.25;;
51814;SDS011;37874;53.158;6.766;2023-02-15T06:02:21;31.55;;;21.80;;
51814;SDS011;37874;53.158;6.766;2023-02-15T06:04:46;41.22;;;26.00;;
51814;SDS011;37874;53.158;6.766;2023-02-15T06:07:12;47.58;;;27.52;;
51814;SDS011;37874;53.158;6.766;2023-02-15T06:09:37;41.95;;;29.80;;
51814;SDS011;37874;53.158;6.766;2023-02-15T06:12:03;50.53;;;33.75;;
51814;SDS011;37874;53.158;6.766;2023-02-15T06:14:29;54.17;;;38.58;;
51814;SDS011;37874;53.158;6.766;2023-02-15T06:16:54;60.40;;;41.03;;
51814;SDS011;37874;53.158;6.766;2023-02-15T06:19:20;58.70;;;41.85;;
51814;SDS011;37874;53.158;6.766;2023-02-15T06:21:47;63.42;;;44.75;;
51814;SDS011;37874;53.158;6.766;2023-02-15T06:24:13;62.33;;;43.83;;
51814;SDS011;37874;53.158;6.766;2023-02-15T06:26:39;63.40;;;44.33;;
51814;SDS011;37874;53.158;6.766;2023-02-15T06:29:04;62.53;;;43.60;;
51814;SDS011;37874;53.158;6.766;2023-02-15T06:31:30;66.38;;;43.47;;
51814;SDS011;37874;53.158;6.766;2023-02-15T06:33:56;62.85;;;44.22;;
51814;SDS011;37874;53.158;6.766;2023-02-15T06:36:26;59.42;;;42.35;;
51814;SDS011;37874;53.158;6.766;2023-02-15T06:38:53;60.50;;;40.83;;
51814;SDS011;37874;53.158;6.766;2023-02-15T06:41:19;57.97;;;40.63;;
51814;SDS011;37874;53.158;6.766;2023-02-15T06:43:45;57.40;;;39.95;;
51814;SDS011;37874;53.158;6.766;2023-02-15T06:46:10;59.90;;;40.88;;
51814;SDS011;37874;53.158;6.766;2023-02-15T06:48:36;60.28;;;40.35;;
51814;SDS011;37874;53.158;6.766;2023-02-15T06:51:01;63.15;;;39.90;;
51814;SDS011;37874;53.158;6.766;2023-02-15T06:53:27;57.28;;;39.65;;
51814;SDS011;37874;53.158;6.766;2023-02-15T06:55:52;60.55;;;39.53;;
51814;SDS011;37874;53.158;6.766;2023-02-15T06:58:24;53.60;;;38.00;;
51814;SDS011;37874;53.158;6.766;2023-02-15T07:00:51;55.08;;;37.88;;
51814;SDS011;37874;53.158;6.766;2023-02-15T07:03:16;51.83;;;36.67;;
51814;SDS011;37874;53.158;6.766;2023-02-15T07:05:42;57.70;;;38.03;;
51814;SDS011;37874;53.158;6.766;2023-02-15T07:08:08;52.55;;;35.35;;
51814;SDS011;37874;53.158;6.766;2023-02-15T07:10:34;56.22;;;36.03;;
51814;SDS011;37874;53.158;6.766;2023-02-15T07:12:59;48.83;;;34.05;;
51814;SDS011;37874;53.158;6.766;2023-02-15T07:15:25;48.03;;;33.92;;
51814;SDS011;37874;53.158;6.766;2023-02-15T07:17:50;47.00;;;34.03;;
51814;SDS011;37874;53.158;6.766;2023-02-15T07:20:17;49.45;;;33.15;;
51814;SDS011;37874;53.158;6.766;2023-02-15T07:22:44;47.15;;;31.05;;
51814;SDS011;37874;53.158;6.766;2023-02-15T07:25:11;45.13;;;30.20;;
51814;SDS011;37874;53.158;6.766;2023-02-15T07:27:37;42.33;;;30.27;;
51814;SDS011;37874;53.158;6.766;2023-02-15T07:30:04;39.80;;;28.38;;
51814;SDS011;37874;53.158;6.766;2023-02-15T07:32:31;40.42;;;29.02;;
51814;SDS011;37874;53.158;6.766;2023-02-15T07:34:58;42.42;;;27.88;;
51814;SDS011;37874;53.158;6.766;2023-02-15T07:37:24;37.38;;;26.88;;
51814;SDS011;37874;53.158;6.766;2023-02-15T07:39:50;37.00;;;26.52;;
51814;SDS011;37874;53.158;6.766;2023-02-15T07:42:15;38.55;;;25.88;;
51814;SDS011;37874;53.158;6.766;2023-02-15T07:44:42;36.88;;;26.15;;
51814;SDS011;37874;53.158;6.766;2023-02-15T07:47:08;34.25;;;24.33;;
51814;SDS011;37874;53.158;6.766;2023-02-15T07:49:34;35.70;;;24.77;;
51814;SDS011;37874;53.158;6.766;2023-02-15T07:52:00;32.90;;;23.38;;
51814;SDS011;37874;53.158;6.766;2023-02-15T07:54:27;33.15;;;23.58;;
51814;SDS011;37874;53.158;6.766;2023-02-15T07:56:52;31.13;;;22.88;;
51814;SDS011;37874;53.158;6.766;2023-02-15T07:59:18;30.20;;;21.42;;
51814;SDS011;37874;53.158;6.766;2023-02-15T08:01:43;28.98;;;21.35;;
51814;SDS011;37874;53.158;6.766;2023-02-15T08:04:09;29.30;;;21.80;;
51814;SDS011;37874;53.158;6.766;2023-02-15T08:06:36;30.23;;;20.83;;
51814;SDS011;37874;53.158;6.766;2023-02-15T08:09:03;29.17;;;20.13;;
51814;SDS011;37874;53.158;6.766;2023-02-15T08:11:31;26.30;;;19.48;;
51814;SDS011;37874;53.158;6.766;2023-02-15T08:14:05;25.50;;;18.08;;
51814;SDS011;37874;53.158;6.766;2023-02-15T08:18:59;24.27;;;17.77;;
51814;SDS011;37874;53.158;6.766;2023-02-15T08:21:33;25.05;;;17.02;;
51814;SDS011;37874;53.158;6.766;2023-02-15T08:24:01;23.80;;;17.15;;
51814;SDS011;37874;53.158;6.766;2023-02-15T08:26:28;25.13;;;16.73;;
51814;SDS011;37874;53.158;6.766;2023-02-15T08:28:54;25.35;;;17.20;;
51814;SDS011;37874;53.158;6.766;2023-02-15T08:31:20;24.45;;;16.38;;
51814;SDS011;37874;53.158;6.766;2023-02-15T08:33:47;23.30;;;16.27;;
51814;SDS011;37874;53.158;6.766;2023-02-15T08:36:14;20.45;;;15.05;;
51814;SDS011;37874;53.158;6.766;2023-02-15T08:38:42;22.00;;;15.35;;
51814;SDS011;37874;53.158;6.766;2023-02-15T08:43:48;21.38;;;14.70;;
51814;SDS011;37874;53.158;6.766;2023-02-15T08:46:16;19.75;;;14.10;;
51814;SDS011;37874;53.158;6.766;2023-02-15T08:48:42;16.92;;;13.38;;
51814;SDS011;37874;53.158;6.766;2023-02-15T08:51:10;21.63;;;14.20;;
51814;SDS011;37874;53.158;6.766;2023-02-15T08:53:39;19.20;;;13.30;;
51814;SDS011;37874;53.158;6.766;2023-02-15T08:56:07;19.23;;;13.52;;
51814;SDS011;37874;53.158;6.766;2023-02-15T08:58:33;18.20;;;12.63;;
51814;SDS011;37874;53.158;6.766;2023-02-15T09:00:59;18.38;;;12.85;;
51814;SDS011;37874;53.158;6.766;2023-02-15T09:03:27;16.80;;;12.45;;
51814;SDS011;37874;53.158;6.766;2023-02-15T09:06:00;16.00;;;11.63;;
51814;SDS011;37874;53.158;6.766;2023-02-15T09:08:26;16.70;;;11.68;;
51814;SDS011;37874;53.158;6.766;2023-02-15T09:10:52;15.90;;;11.45;;
51814;SDS011;37874;53.158;6.766;2023-02-15T09:13:18;15.23;;;11.27;;
51814;SDS011;37874;53.158;6.766;2023-02-15T09:15:45;15.73;;;11.82;;
51814;SDS011;37874;53.158;6.766;2023-02-15T09:18:11;16.08;;;11.20;;
51814;SDS011;37874;53.158;6.766;2023-02-15T09:20:42;15.27;;;10.57;;
51814;SDS011;37874;53.158;6.766;2023-02-15T09:23:09;16.55;;;11.05;;
51814;SDS011;37874;53.158;6.766;2023-02-15T09:25:34;16.15;;;10.80;;
51814;SDS011;37874;53.158;6.766;2023-02-15T09:28:00;15.43;;;10.38;;
51814;SDS011;37874;53.158;6.766;2023-02-15T09:30:25;14.65;;;9.88;;
51814;SDS011;37874;53.158;6.766;2023-02-15T09:32:51;13.02;;;10.05;;
51814;SDS011;37874;53.158;6.766;2023-02-15T09:35:16;13.27;;;9.90;;
51814;SDS011;37874;53.158;6.766;2023-02-15T09:37:42;12.57;;;9.43;;
51814;SDS011;37874;53.158;6.766;2023-02-15T09:40:08;13.35;;;9.45;;
51814;SDS011;37874;53.158;6.766;2023-02-15T09:55:56;13.05;;;9.05;;
51814;SDS011;37874;53.158;6.766;2023-02-15T10:01:36;12.45;;;9.15;;
51814;SDS011;37874;53.158;6.766;2023-02-15T10:20:26;12.48;;;8.18;;
51814;SDS011;37874;53.158;6.766;2023-02-15T10:28:30;14.15;;;8.68;;
51814;SDS011;37874;53.158;6.766;2023-02-15T10:34:25;11.23;;;8.48;;
51814;SDS011;37874;53.158;6.766;2023-02-15T10:39:34;11.93;;;8.63;;
51814;SDS011;37874;53.158;6.766;2023-02-15T10:45:06;11.80;;;8.55;;
51814;SDS011;37874;53.158;6.766;2023-02-15T10:50:42;12.10;;;8.23;;
51814;SDS011;37874;53.158;6.766;2023-02-15T10:53:17;10.30;;;7.72;;
51814;SDS011;37874;53.158;6.766;2023-02-15T11:04:58;9.50;;;7.50;;
51814;SDS011;37874;53.158;6.766;2023-02-15T11:07:38;10.60;;;7.97;;
51814;SDS011;37874;53.158;6.766;2023-02-15T11:13:02;9.73;;;7.63;;
51814;SDS011;37874;53.158;6.766;2023-02-15T11:20:59;10.30;;;7.07;;
51814;SDS011;37874;53.158;6.766;2023-02-15T11:23:29;9.55;;;7.35;;
51814;SDS011;37874;53.158;6.766;2023-02-15T11:25:59;9.85;;;7.43;;
51814;SDS011;37874;53.158;6.766;2023-02-15T11:28:30;9.48;;;7.50;;
51814;SDS011;37874;53.158;6.766;2023-02-15T11:31:00;9.57;;;7.43;;
51814;SDS011;37874;53.158;6.766;2023-02-15T11:33:49;11.73;;;7.57;;
51814;SDS011;37874;53.158;6.766;2023-02-15T11:36:26;11.35;;;7.38;;
51814;SDS011;37874;53.158;6.766;2023-02-15T11:39:01;9.80;;;7.50;;
51814;SDS011;37874;53.158;6.766;2023-02-15T11:41:34;10.27;;;7.03;;
51814;SDS011;37874;53.158;6.766;2023-02-15T11:44:10;8.95;;;6.60;;
51814;SDS011;37874;53.158;6.766;2023-02-15T11:46:40;9.65;;;6.70;;
51814;SDS011;37874;53.158;6.766;2023-02-15T11:49:48;8.80;;;6.80;;
51814;SDS011;37874;53.158;6.766;2023-02-15T11:52:02;9.40;;;6.97;;
51814;SDS011;37874;53.158;6.766;2023-02-15T11:54:32;9.90;;;6.80;;
51814;SDS011;37874;53.158;6.766;2023-02-15T12:00:31;10.20;;;6.82;;
51814;SDS011;37874;53.158;6.766;2023-02-15T12:02:50;10.73;;;7.65;;
51814;SDS011;37874;53.158;6.766;2023-02-15T12:05:20;8.98;;;6.50;;
51814;SDS011;37874;53.158;6.766;2023-02-15T12:08:22;9.55;;;6.80;;
51814;SDS011;37874;53.158;6.766;2023-02-15T12:10:58;10.98;;;7.47;;
51814;SDS011;37874;53.158;6.766;2023-02-15T12:13:30;9.23;;;6.47;;
51814;SDS011;37874;53.158;6.766;2023-02-15T12:15:56;9.73;;;6.75;;
51814;SDS011;37874;53.158;6.766;2023-02-15T12:21:08;11.13;;;6.35;;
51814;SDS011;37874;53.158;6.766;2023-02-15T12:23:51;9.88;;;6.60;;
51814;SDS011;37874;53.158;6.766;2023-02-15T12:28:55;9.40;;;6.05;;
51814;SDS011;37874;53.158;6.766;2023-02-15T12:31:27;9.52;;;6.28;;
51814;SDS011;37874;53.158;6.766;2023-02-15T12:33:57;9.00;;;6.07;;
51814;SDS011;37874;53.158;6.766;2023-02-15T12:36:33;10.50;;;7.18;;
51814;SDS011;37874;53.158;6.766;2023-02-15T12:41:37;10.48;;;6.72;;
51814;SDS011;37874;53.158;6.766;2023-02-15T12:44:06;9.30;;;6.80;;
51814;SDS011;37874;53.158;6.766;2023-02-15T12:46:41;10.45;;;6.57;;
51814;SDS011;37874;53.158;6.766;2023-02-15T12:52:05;9.52;;;7.10;;
51814;SDS011;37874;53.158;6.766;2023-02-15T12:54:42;9.65;;;6.57;;
51814;SDS011;37874;53.158;6.766;2023-02-15T12:59:53;9.25;;;6.88;;
51814;SDS011;37874;53.158;6.766;2023-02-15T13:02:25;10.65;;;6.82;;
51814;SDS011;37874;53.158;6.766;2023-02-15T13:04:55;9.95;;;6.32;;
51814;SDS011;37874;53.158;6.766;2023-02-15T13:07:23;9.45;;;6.05;;
51814;SDS011;37874;53.158;6.766;2023-02-15T13:09:50;7.90;;;5.63;;
51814;SDS011;37874;53.158;6.766;2023-02-15T13:12:26;9.48;;;6.85;;
51814;SDS011;37874;53.158;6.766;2023-02-15T13:14:58;8.55;;;6.22;;
51814;SDS011;37874;53.158;6.766;2023-02-15T13:17:28;9.95;;;6.78;;
51814;SDS011;37874;53.158;6.766;2023-02-15T13:20:06;9.77;;;6.40;;
51814;SDS011;37874;53.158;6.766;2023-02-15T13:22:45;9.10;;;6.60;;
51814;SDS011;37874;53.158;6.766;2023-02-15T13:25:14;9.68;;;6.88;;
51814;SDS011;37874;53.158;6.766;2023-02-15T13:27:44;8.88;;;6.63;;
51814;SDS011;37874;53.158;6.766;2023-02-15T13:30:16;9.80;;;6.90;;
51814;SDS011;37874;53.158;6.766;2023-02-15T13:32:44;9.23;;;6.65;;
51814;SDS011;37874;53.158;6.766;2023-02-15T13:35:14;11.77;;;7.70;;
51814;SDS011;37874;53.158;6.766;2023-02-15T13:38:03;8.43;;;6.38;;
51814;SDS011;37874;53.158;6.766;2023-02-15T13:48:46;10.30;;;7.15;;
51814;SDS011;37874;53.158;6.766;2023-02-15T13:51:37;11.77;;;7.50;;
51814;SDS011;37874;53.158;6.766;2023-02-15T14:16:28;9.43;;;6.80;;
51814;SDS011;37874;53.158;6.766;2023-02-15T14:19:27;10.90;;;6.82;;
51814;SDS011;37874;53.158;6.766;2023-02-15T14:21:58;9.88;;;6.85;;
51814;SDS011;37874;53.158;6.766;2023-02-15T14:24:38;9.55;;;6.88;;
51814;SDS011;37874;53.158;6.766;2023-02-15T14:32:34;8.85;;;6.28;;
51814;SDS011;37874;53.158;6.766;2023-02-15T14:37:40;9.65;;;6.60;;
51814;SDS011;37874;53.158;6.766;2023-02-15T14:46:16;9.70;;;7.00;;
51814;SDS011;37874;53.158;6.766;2023-02-15T14:56:46;8.63;;;6.15;;
51814;SDS011;37874;53.158;6.766;2023-02-15T15:01:58;10.30;;;6.70;;
51814;SDS011;37874;53.158;6.766;2023-02-15T15:07:09;10.32;;;6.78;;
51814;SDS011;37874;53.158;6.766;2023-02-15T15:09:48;9.45;;;6.60;;
51814;SDS011;37874;53.158;6.766;2023-02-15T15:14:50;9.00;;;6.55;;
51814;SDS011;37874;53.158;6.766;2023-02-15T15:22:34;9.32;;;6.75;;
51814;SDS011;37874;53.158;6.766;2023-02-15T15:25:02;9.35;;;5.82;;
51814;SDS011;37874;53.158;6.766;2023-02-15T15:38:43;9.98;;;6.50;;
51814;SDS011;37874;53.158;6.766;2023-02-15T15:49:59;9.95;;;6.88;;
51814;SDS011;37874;53.158;6.766;2023-02-15T15:52:25;8.60;;;6.72;;
51814;SDS011;37874;53.158;6.766;2023-02-15T15:54:57;9.93;;;7.05;;
51814;SDS011;37874;53.158;6.766;2023-02-15T15:57:38;10.10;;;7.53;;
51814;SDS011;37874;53.158;6.766;2023-02-15T16:00:22;10.32;;;6.57;;
51814;SDS011;37874;53.158;6.766;2023-02-15T16:02:56;11.15;;;7.63;;
51814;SDS011;37874;53.158;6.766;2023-02-15T16:05:21;10.15;;;7.65;;
51814;SDS011;37874;53.158;6.766;2023-02-15T16:07:48;9.27;;;7.05;;
51814;SDS011;37874;53.158;6.766;2023-02-15T16:10:24;9.35;;;6.68;;
51814;SDS011;37874;53.158;6.766;2023-02-15T16:12:52;9.25;;;6.97;;
51814;SDS011;37874;53.158;6.766;2023-02-15T16:15:20;9.70;;;6.65;;
51814;SDS011;37874;53.158;6.766;2023-02-15T16:17:55;10.18;;;7.88;;
51814;SDS011;37874;53.158;6.766;2023-02-15T16:20:27;9.75;;;7.03;;
51814;SDS011;37874;53.158;6.766;2023-02-15T16:23:02;10.63;;;7.45;;
51814;SDS011;37874;53.158;6.766;2023-02-15T16:28:25;9.75;;;7.30;;
51814;SDS011;37874;53.158;6.766;2023-02-15T16:33:39;11.57;;;7.88;;
51814;SDS011;37874;53.158;6.766;2023-02-15T16:36:10;11.50;;;7.85;;
51814;SDS011;37874;53.158;6.766;2023-02-15T16:41:10;11.20;;;7.78;;
51814;SDS011;37874;53.158;6.766;2023-02-15T16:43:48;10.60;;;7.28;;
51814;SDS011;37874;53.158;6.766;2023-02-15T16:46:24;10.98;;;7.47;;
51814;SDS011;37874;53.158;6.766;2023-02-15T16:48:54;10.77;;;7.82;;
51814;SDS011;37874;53.158;6.766;2023-02-15T16:51:28;11.90;;;7.85;;
51814;SDS011;37874;53.158;6.766;2023-02-15T16:53:56;9.77;;;7.32;;
51814;SDS011;37874;53.158;6.766;2023-02-15T16:56:33;11.02;;;6.90;;
51814;SDS011;37874;53.158;6.766;2023-02-15T16:59:01;11.48;;;7.32;;
51814;SDS011;37874;53.158;6.766;2023-02-15T17:01:29;11.93;;;7.70;;
51814;SDS011;37874;53.158;6.766;2023-02-15T17:04:13;10.73;;;7.53;;
51814;SDS011;37874;53.158;6.766;2023-02-15T17:07:29;10.57;;;7.43;;
51814;SDS011;37874;53.158;6.766;2023-02-15T17:09:54;11.15;;;7.80;;
51814;SDS011;37874;53.158;6.766;2023-02-15T17:15:23;11.23;;;7.93;;
51814;SDS011;37874;53.158;6.766;2023-02-15T17:17:49;9.75;;;7.32;;
51814;SDS011;37874;53.158;6.766;2023-02-15T17:20:15;10.15;;;7.40;;
51814;SDS011;37874;53.158;6.766;2023-02-15T17:22:42;10.30;;;6.90;;
51814;SDS011;37874;53.158;6.766;2023-02-15T17:25:14;10.57;;;6.93;;
51814;SDS011;37874;53.158;6.766;2023-02-15T17:27:49;10.25;;;7.40;;
51814;SDS011;37874;53.158;6.766;2023-02-15T17:30:49;9.52;;;7.10;;
51814;SDS011;37874;53.158;6.766;2023-02-15T17:38:34;10.27;;;8.00;;
51814;SDS011;37874;53.158;6.766;2023-02-15T17:41:00;9.70;;;7.45;;
51814;SDS011;37874;53.158;6.766;2023-02-15T17:43:26;10.77;;;7.20;;
51814;SDS011;37874;53.158;6.766;2023-02-15T17:45:52;9.60;;;7.07;;
51814;SDS011;37874;53.158;6.766;2023-02-15T17:48:23;12.63;;;7.85;;
51814;SDS011;37874;53.158;6.766;2023-02-15T17:50:56;10.23;;;7.45;;
51814;SDS011;37874;53.158;6.766;2023-02-15T17:53:22;12.13;;;7.70;;
51814;SDS011;37874;53.158;6.766;2023-02-15T17:55:49;10.30;;;7.18;;
51814;SDS011;37874;53.158;6.766;2023-02-15T17:58:16;9.88;;;7.47;;
51814;SDS011;37874;53.158;6.766;2023-02-15T18:00:44;10.98;;;8.10;;
51814;SDS011;37874;53.158;6.766;2023-02-15T18:03:39;8.88;;;6.55;;
51814;SDS011;37874;53.158;6.766;2023-02-15T18:06:27;10.32;;;7.57;;
51814;SDS011;37874;53.158;6.766;2023-02-15T18:09:15;9.32;;;6.95;;
51814;SDS011;37874;53.158;6.766;2023-02-15T18:12:01;10.45;;;7.40;;
51814;SDS011;37874;53.158;6.766;2023-02-15T18:14:31;10.98;;;7.88;;
51814;SDS011;37874;53.158;6.766;2023-02-15T18:16:56;11.60;;;7.78;;
51814;SDS011;37874;53.158;6.766;2023-02-15T18:19:25;10.80;;;7.32;;
51814;SDS011;37874;53.158;6.766;2023-02-15T18:21:51;9.60;;;6.68;;
51814;SDS011;37874;53.158;6.766;2023-02-15T18:24:23;10.18;;;7.15;;
51814;SDS011;37874;53.158;6.766;2023-02-15T18:26:50;11.02;;;7.00;;
51814;SDS011;37874;53.158;6.766;2023-02-15T18:29:17;9.73;;;6.88;;
51814;SDS011;37874;53.158;6.766;2023-02-15T18:31:43;11.05;;;7.32;;
51814;SDS011;37874;53.158;6.766;2023-02-15T18:34:20;11.15;;;7.82;;